createdAt,value
2023-01-19T00:01:26.510Z,99.27
2023-01-19T00:03:55.325Z,99.86
2023-01-19T00:06:25.451Z,100.00
2023-01-19T00:08:54.479Z,100.00
2023-01-19T00:11:25.059Z,100.00
2023-01-19T00:13:57.976Z,100.00
2023-01-19T00:16:30.028Z,100.00
2023-01-19T00:19:00.044Z,100.00
2023-01-19T00:21:29.633Z,100.00
2023-01-19T00:23:57.133Z,100.00
2023-01-19T00:26:30.355Z,100.00
2023-01-19T00:28:57.471Z,100.00
2023-01-19T00:31:30.521Z,100.00
2023-01-19T00:33:57.607Z,100.00
2023-01-19T00:36:24.684Z,100.00
2023-01-19T00:38:52.048Z,99.85
2023-01-19T00:41:19.477Z,100.00
2023-01-19T00:43:46.632Z,99.47
2023-01-19T00:46:13.951Z,100.00
2023-01-19T00:48:41.307Z,98.92
2023-01-19T00:51:09.545Z,99.69
2023-01-19T00:53:36.867Z,99.71
2023-01-19T00:56:05.565Z,100.00
2023-01-19T00:58:32.657Z,99.25
2023-01-19T01:01:04.379Z,98.99
2023-01-19T01:03:32.920Z,98.19
2023-01-19T01:06:03.888Z,100.00
2023-01-19T01:08:35.065Z,98.26
2023-01-19T01:11:07.437Z,98.01
2023-01-19T01:13:34.661Z,97.34
2023-01-19T01:16:02.111Z,100.00
2023-01-19T01:18:31.827Z,95.98
2023-01-19T01:21:03.688Z,95.84
2023-01-19T01:23:30.936Z,95.44
2023-01-19T01:25:58.305Z,98.61
2023-01-19T01:28:25.945Z,94.64
2023-01-19T01:30:54.813Z,95.43
2023-01-19T01:33:40.624Z,94.88
2023-01-19T01:36:11.343Z,100.00
2023-01-19T01:38:41.817Z,95.10
2023-01-19T01:41:09.559Z,94.31
2023-01-19T01:43:52.128Z,94.07
2023-01-19T01:46:31.735Z,95.24
2023-01-19T01:49:24.154Z,93.77
2023-01-19T01:51:53.916Z,93.44
2023-01-19T01:54:26.491Z,93.01
2023-01-19T01:57:00.271Z,93.92
2023-01-19T01:59:36.620Z,91.73
2023-01-19T02:02:18.188Z,92.52
2023-01-19T02:05:02.154Z,91.76
2023-01-19T02:08:16.575Z,91.92
2023-01-19T02:10:44.525Z,91.87
2023-01-19T02:13:12.833Z,91.44
2023-01-19T02:15:40.091Z,91.78
2023-01-19T02:18:07.414Z,90.78
2023-01-19T02:20:39.990Z,90.11
2023-01-19T02:23:17.299Z,89.70
2023-01-19T02:25:44.835Z,89.32
2023-01-19T02:28:12.715Z,88.50
2023-01-19T02:30:41.559Z,88.49
2023-01-19T02:33:09.086Z,87.90
2023-01-19T02:35:39.046Z,88.60
2023-01-19T02:38:07.931Z,87.69
2023-01-19T02:40:36.782Z,87.21
2023-01-19T02:43:07.340Z,86.95
2023-01-19T02:45:35.918Z,87.20
2023-01-19T02:48:03.333Z,87.10
2023-01-19T02:50:36.460Z,87.31
2023-01-19T02:53:25.879Z,87.64
2023-01-19T02:56:18.911Z,91.02
2023-01-19T02:59:10.761Z,87.95
2023-01-19T03:01:50.336Z,88.10
2023-01-19T03:04:36.293Z,88.60
2023-01-19T03:07:28.953Z,93.14
2023-01-19T03:10:07.191Z,87.09
2023-01-19T03:12:51.591Z,86.19
2023-01-19T03:15:54.059Z,85.08
2023-01-19T03:18:26.661Z,84.52
2023-01-19T03:21:03.873Z,83.45
2023-01-19T03:23:37.077Z,83.49
2023-01-19T03:26:07.124Z,87.70
2023-01-19T03:28:37.676Z,83.35
2023-01-19T03:31:20.947Z,82.90
2023-01-19T03:34:00.763Z,83.73
2023-01-19T03:36:36.134Z,84.88
2023-01-19T03:39:06.983Z,83.41
2023-01-19T03:41:37.957Z,82.40
2023-01-19T03:44:06.233Z,82.65
2023-01-19T03:46:33.896Z,84.95
2023-01-19T03:49:01.169Z,82.40
2023-01-19T03:51:39.120Z,82.03
2023-01-19T03:54:07.445Z,81.39
2023-01-19T03:56:34.888Z,80.63
2023-01-19T03:59:04.176Z,80.42
2023-01-19T04:01:40.966Z,79.72
2023-01-19T04:04:14.187Z,79.60
2023-01-19T04:06:42.312Z,71.23
2023-01-19T04:09:20.255Z,67.44
2023-01-19T04:11:50.519Z,66.62
2023-01-19T04:14:20.605Z,67.93
2023-01-19T04:16:47.843Z,65.20
2023-01-19T04:19:15.105Z,65.69
2023-01-19T04:21:42.411Z,71.38
2023-01-19T04:24:16.104Z,70.28
2023-01-19T04:26:49.350Z,69.19
2023-01-19T04:29:18.921Z,71.18
2023-01-19T04:31:50.653Z,76.17
2023-01-19T04:34:54.483Z,77.85
2023-01-19T04:37:23.686Z,78.81
2023-01-19T04:39:50.925Z,81.87
2023-01-19T04:42:18.536Z,85.26
2023-01-19T04:44:52.120Z,81.96
2023-01-19T04:47:25.026Z,80.80
2023-01-19T04:49:52.929Z,83.49
2023-01-19T04:52:25.023Z,79.62
2023-01-19T04:54:54.869Z,81.68
2023-01-19T04:57:22.643Z,81.92
2023-01-19T04:59:50.625Z,81.21
2023-01-19T05:02:19.506Z,78.28
2023-01-19T05:04:49.991Z,80.01
2023-01-19T05:07:17.909Z,79.77
2023-01-19T05:09:50.048Z,80.06
2023-01-19T05:12:17.644Z,79.95
2023-01-19T05:14:49.534Z,80.73
2023-01-19T05:17:16.807Z,83.75
2023-01-19T05:19:49.489Z,82.28
2023-01-19T05:22:16.814Z,83.23
2023-01-19T05:24:50.366Z,83.58
2023-01-19T05:27:20.752Z,86.63
2023-01-19T05:29:50.154Z,84.09
2023-01-19T05:32:20.788Z,84.21
2023-01-19T05:34:52.347Z,84.62
2023-01-19T05:37:23.932Z,89.88
2023-01-19T05:39:54.025Z,84.48
2023-01-19T05:42:23.326Z,84.48
2023-01-19T05:48:02.761Z,87.03
2023-01-19T05:50:32.877Z,83.33
2023-01-19T05:53:01.796Z,82.98
2023-01-19T05:55:30.240Z,83.64
2023-01-19T05:57:57.616Z,86.11
2023-01-19T06:00:25.083Z,82.87
2023-01-19T06:02:55.740Z,82.66
2023-01-19T06:05:24.056Z,82.44
2023-01-19T06:07:52.223Z,85.21
2023-01-19T06:10:25.284Z,82.91
2023-01-19T06:12:55.620Z,83.89
2023-01-19T06:15:24.020Z,84.44
2023-01-19T06:17:53.756Z,87.18
2023-01-19T06:20:23.392Z,84.04
2023-01-19T06:22:51.497Z,84.30
2023-01-19T06:25:22.267Z,84.32
2023-01-19T06:27:56.634Z,88.14
2023-01-19T06:30:24.145Z,85.24
2023-01-19T06:32:55.779Z,86.01
2023-01-19T06:35:23.162Z,85.86
2023-01-19T06:37:50.618Z,87.66
2023-01-19T06:40:18.285Z,85.14
2023-01-19T06:42:50.687Z,86.01
2023-01-19T06:45:23.396Z,85.72
2023-01-19T06:47:51.203Z,87.63
2023-01-19T06:50:20.432Z,85.99
2023-01-19T06:52:54.840Z,86.29
2023-01-19T06:55:25.333Z,86.32
2023-01-19T06:58:00.239Z,87.71
2023-01-19T07:00:29.998Z,85.87
2023-01-19T07:03:00.924Z,85.65
2023-01-19T07:05:28.611Z,85.83
2023-01-19T07:07:57.139Z,87.23
2023-01-19T07:10:24.785Z,86.46
2023-01-19T07:12:52.336Z,85.27
2023-01-19T07:15:20.256Z,83.92
2023-01-19T07:17:47.707Z,84.58
2023-01-19T07:20:15.120Z,82.43
2023-01-19T07:22:45.823Z,82.39
2023-01-19T07:25:16.774Z,81.25
2023-01-19T07:27:44.264Z,82.02
2023-01-19T07:30:12.373Z,77.67
2023-01-19T07:32:47.886Z,75.95
2023-01-19T07:35:22.469Z,74.67
2023-01-19T07:37:54.660Z,75.00
2023-01-19T07:40:24.488Z,73.18
2023-01-19T07:42:56.469Z,71.97
2023-01-19T07:45:23.978Z,71.09
2023-01-19T07:47:52.388Z,73.87
2023-01-19T07:50:20.538Z,72.74
2023-01-19T07:52:59.690Z,71.20
2023-01-19T07:55:27.775Z,71.14
2023-01-19T07:58:07.568Z,74.71
2023-01-19T08:00:40.855Z,74.38
2023-01-19T08:03:11.138Z,74.59
2023-01-19T08:05:42.012Z,74.98
2023-01-19T08:08:12.303Z,81.12
2023-01-19T08:10:41.636Z,72.45
2023-01-19T08:13:09.135Z,69.59
2023-01-19T08:15:36.595Z,66.76
2023-01-19T08:18:04.618Z,66.63
2023-01-19T08:20:32.568Z,63.19
2023-01-19T08:23:02.193Z,63.40
2023-01-19T08:25:43.339Z,63.75
2023-01-19T08:28:15.688Z,65.72
2023-01-19T08:30:45.809Z,63.52
2023-01-19T08:33:13.699Z,64.00
2023-01-19T08:35:43.443Z,63.81
2023-01-19T08:41:03.239Z,69.28
2023-01-19T08:43:35.339Z,63.62
2023-01-19T08:46:08.899Z,62.89
2023-01-19T08:48:37.329Z,63.19
2023-01-19T08:51:15.141Z,63.92
2023-01-19T08:53:49.721Z,65.91
2023-01-19T08:56:18.543Z,64.75
2023-01-19T08:59:08.440Z,65.70
2023-01-19T09:01:40.709Z,65.27
2023-01-19T09:04:19.492Z,66.76
2023-01-19T09:06:49.478Z,68.69
2023-01-19T09:09:16.945Z,68.26
2023-01-19T09:11:50.043Z,68.60
2023-01-19T09:14:22.093Z,69.75
2023-01-19T09:16:52.516Z,69.85
2023-01-19T09:19:20.099Z,73.63
2023-01-19T09:21:47.667Z,70.62
2023-01-19T09:24:15.047Z,69.71
2023-01-19T09:26:44.497Z,70.74
2023-01-19T09:29:11.883Z,73.33
2023-01-19T09:31:39.354Z,69.84
2023-01-19T09:34:06.851Z,69.70
2023-01-19T09:36:34.759Z,69.95
2023-01-19T09:39:02.104Z,72.10
2023-01-19T09:41:31.139Z,70.98
2023-01-19T09:44:00.341Z,70.88
2023-01-19T09:46:46.655Z,71.01
2023-01-19T09:49:31.444Z,71.53
2023-01-19T09:52:00.850Z,69.94
2023-01-19T09:54:34.145Z,70.58
2023-01-19T09:57:02.340Z,71.08
2023-01-19T09:59:31.815Z,74.05
2023-01-19T10:02:31.767Z,72.92
2023-01-19T10:05:00.417Z,69.53
2023-01-19T10:07:56.780Z,67.97
2023-01-19T10:10:35.632Z,64.90
2023-01-19T10:13:30.109Z,63.31
2023-01-19T10:16:16.938Z,62.42
2023-01-19T10:18:50.385Z,63.23
2023-01-19T10:21:39.540Z,60.84
2023-01-19T10:24:19.560Z,60.13
2023-01-19T10:26:52.998Z,59.82
2023-01-19T10:29:35.292Z,60.91
2023-01-19T10:32:13.931Z,61.01
2023-01-19T10:34:43.049Z,58.40
2023-01-19T10:37:18.156Z,58.14
2023-01-19T10:39:47.373Z,57.78
2023-01-19T10:42:16.369Z,57.36
2023-01-19T10:44:44.621Z,58.22
2023-01-19T10:47:17.539Z,58.45
2023-01-19T10:49:45.964Z,58.87
2023-01-19T10:52:38.648Z,56.95
2023-01-19T10:55:20.321Z,56.78
2023-01-19T10:57:50.444Z,56.56
2023-01-19T11:00:47.437Z,57.67
2023-01-19T11:03:33.458Z,57.54
2023-01-19T11:06:30.461Z,57.06
2023-01-19T11:09:20.052Z,59.63
2023-01-19T11:11:52.950Z,57.68
2023-01-19T11:14:23.438Z,59.11
2023-01-19T11:16:57.829Z,57.66
2023-01-19T11:19:32.241Z,59.51
2023-01-19T11:22:21.544Z,58.10
2023-01-19T11:24:50.233Z,58.32
2023-01-19T11:27:20.823Z,58.23
2023-01-19T11:30:08.003Z,58.15
2023-01-19T11:32:43.343Z,58.45
2023-01-19T11:35:33.765Z,59.19
2023-01-19T11:38:13.446Z,57.90
2023-01-19T11:40:46.624Z,55.24
2023-01-19T11:43:15.945Z,51.57
2023-01-19T11:45:45.852Z,51.71
2023-01-19T11:48:37.746Z,54.76
2023-01-19T11:51:12.943Z,53.06
2023-01-19T11:53:43.476Z,53.52
2023-01-19T11:56:17.494Z,54.07
2023-01-19T11:58:45.481Z,56.26
2023-01-19T12:01:21.943Z,53.97
2023-01-19T12:04:01.810Z,55.21
2023-01-19T12:06:39.867Z,56.97
2023-01-19T12:09:10.364Z,59.80
2023-01-19T12:11:52.478Z,58.39
2023-01-19T12:14:26.579Z,58.36
2023-01-19T12:16:59.115Z,58.77
2023-01-19T12:19:44.099Z,70.57
2023-01-19T12:22:15.700Z,66.41
2023-01-19T12:24:52.589Z,67.64
2023-01-19T12:27:45.454Z,69.28
2023-01-19T12:30:25.732Z,73.03
2023-01-19T12:33:28.262Z,74.69
2023-01-19T12:35:59.040Z,72.12
2023-01-19T12:38:47.510Z,78.17
2023-01-19T12:41:29.214Z,73.09
2023-01-19T12:44:11.918Z,73.62
2023-01-19T12:46:45.860Z,74.03
2023-01-19T12:49:42.382Z,75.94
2023-01-19T12:52:29.555Z,75.35
2023-01-19T12:54:56.933Z,75.81
2023-01-19T12:57:27.386Z,75.20
2023-01-19T13:00:24.888Z,78.04
2023-01-19T13:03:20.695Z,75.45
2023-01-19T13:05:55.857Z,75.39
2023-01-19T13:08:26.318Z,81.62
2023-01-19T13:10:53.887Z,78.63
2023-01-19T13:13:24.214Z,76.61
2023-01-19T13:15:54.783Z,76.57
2023-01-19T13:18:29.853Z,76.39
2023-01-19T13:21:00.161Z,76.14
2023-01-19T13:23:48.759Z,75.01
2023-01-19T13:26:19.420Z,75.36
2023-01-19T13:28:51.526Z,76.69
2023-01-19T13:31:19.984Z,75.17
2023-01-19T13:33:59.913Z,74.73
2023-01-19T13:36:41.440Z,74.90
2023-01-19T13:39:15.470Z,79.35
2023-01-19T13:41:44.681Z,75.10
2023-01-19T13:44:28.607Z,76.01
2023-01-19T13:46:57.010Z,76.32
2023-01-19T13:49:24.317Z,81.32
2023-01-19T13:52:07.935Z,75.91
2023-01-19T13:54:35.291Z,76.20
2023-01-19T13:57:03.251Z,76.56
2023-01-19T13:59:30.782Z,81.76
2023-01-19T14:02:09.231Z,76.85
2023-01-19T14:04:37.500Z,77.50
2023-01-19T14:07:18.514Z,77.58
2023-01-19T14:09:45.965Z,81.50
2023-01-19T14:12:17.206Z,77.85
2023-01-19T14:14:45.882Z,78.88
2023-01-19T14:17:28.814Z,79.64
2023-01-19T14:19:58.257Z,83.75
2023-01-19T14:22:43.993Z,79.88
2023-01-19T14:25:30.572Z,79.83
2023-01-19T14:28:26.111Z,80.33
2023-01-19T14:30:55.679Z,81.64
2023-01-19T14:33:43.010Z,79.43
2023-01-19T14:36:14.709Z,79.80
2023-01-19T14:38:45.910Z,80.00
2023-01-19T14:41:24.968Z,80.26
2023-01-19T14:43:52.795Z,80.17
2023-01-19T14:46:20.967Z,81.08
2023-01-19T14:48:50.414Z,77.28
2023-01-19T14:51:24.088Z,72.60
2023-01-19T14:53:58.730Z,69.89
2023-01-19T14:56:32.275Z,70.70
2023-01-19T14:59:01.772Z,70.69
2023-01-19T15:01:29.312Z,69.24
2023-01-19T15:03:57.422Z,69.09
2023-01-19T15:06:28.090Z,70.17
2023-01-19T15:09:05.780Z,69.40
2023-01-19T15:11:35.151Z,74.80
2023-01-19T15:14:02.986Z,75.67
2023-01-19T15:16:34.376Z,76.84
2023-01-19T15:19:01.806Z,79.46
2023-01-19T15:21:31.141Z,83.62
2023-01-19T15:23:58.713Z,80.11
2023-01-19T15:26:27.631Z,82.44
2023-01-19T15:28:58.714Z,82.59
2023-01-19T15:31:30.749Z,83.46
2023-01-19T15:33:58.224Z,84.02
2023-01-19T15:36:25.811Z,83.93
2023-01-19T15:38:57.889Z,86.79
2023-01-19T15:41:28.294Z,86.11
2023-01-19T15:43:56.303Z,86.36
2023-01-19T15:46:28.105Z,85.96
2023-01-19T15:48:57.115Z,93.31
2023-01-19T15:51:26.061Z,87.42
2023-01-19T15:54:02.596Z,87.44
2023-01-19T15:56:31.672Z,89.40
2023-01-19T15:58:59.329Z,91.19
2023-01-19T16:01:29.320Z,91.26
2023-01-19T16:04:03.209Z,90.85
2023-01-19T16:06:31.721Z,92.46
2023-01-19T16:08:59.457Z,93.50
2023-01-19T16:11:32.870Z,95.69
2023-01-19T16:14:00.826Z,97.30
2023-01-19T16:16:28.577Z,98.64
2023-01-19T16:18:56.335Z,98.69
2023-01-19T16:21:25.473Z,99.99
2023-01-19T16:23:53.501Z,99.40
2023-01-19T16:26:33.562Z,99.59
2023-01-19T16:29:03.959Z,100.00
2023-01-19T16:31:31.209Z,100.00
2023-01-19T16:33:58.524Z,100.00
2023-01-19T16:36:28.681Z,100.00
2023-01-19T16:39:00.117Z,100.00
2023-01-19T16:41:29.249Z,100.00
2023-01-19T16:43:58.005Z,100.00
2023-01-19T16:46:30.488Z,100.00
2023-01-19T16:49:07.255Z,100.00
2023-01-19T16:51:38.131Z,100.00
2023-01-19T16:54:08.097Z,100.00
2023-01-19T16:56:35.428Z,100.00
2023-01-19T16:59:02.863Z,100.00
2023-01-19T17:01:30.196Z,100.00
2023-01-19T17:04:01.738Z,100.00
2023-01-19T17:06:28.809Z,100.00
2023-01-19T17:08:58.670Z,100.00
2023-01-19T17:11:30.615Z,100.00
2023-01-19T17:14:04.001Z,100.00
2023-01-19T17:16:32.971Z,100.00
2023-01-19T17:19:03.062Z,100.00
2023-01-19T17:21:30.404Z,100.00
2023-01-19T17:24:00.725Z,100.00
2023-01-19T17:26:29.010Z,100.00
2023-01-19T17:29:11.616Z,100.00
2023-01-19T17:31:38.964Z,100.00
2023-01-19T17:34:08.720Z,100.00
2023-01-19T17:36:38.972Z,100.00
2023-01-19T17:39:11.897Z,100.00
2023-01-19T17:41:39.551Z,100.00
2023-01-19T17:44:07.431Z,100.00
2023-01-19T17:46:37.394Z,100.00
2023-01-19T17:49:07.024Z,100.00
2023-01-19T17:51:39.132Z,100.00
2023-01-19T17:54:06.457Z,100.00
2023-01-19T17:56:40.865Z,100.00
2023-01-19T17:59:08.407Z,100.00
2023-01-19T18:01:40.322Z,100.00
2023-01-19T18:04:10.883Z,100.00
2023-01-19T18:06:38.534Z,100.00
2023-01-19T18:09:06.192Z,100.00
2023-01-19T18:11:41.981Z,100.00
2023-01-19T18:14:13.021Z,100.00
2023-01-19T18:16:42.460Z,100.00
2023-01-19T18:22:02.617Z,100.00
2023-01-19T18:24:32.745Z,100.00
2023-01-19T18:27:09.213Z,100.00
2023-01-19T18:29:42.976Z,100.00
2023-01-19T18:32:10.763Z,100.00
2023-01-19T18:34:37.932Z,100.00
2023-01-19T18:37:05.237Z,100.00
2023-01-19T18:39:32.779Z,100.00
2023-01-19T18:42:00.118Z,100.00
2023-01-19T18:44:27.469Z,100.00
2023-01-19T18:46:54.930Z,100.00
2023-01-19T18:49:22.663Z,100.00
2023-01-19T18:51:52.981Z,100.00
2023-01-19T18:54:25.084Z,100.00
2023-01-19T18:57:04.347Z,100.00
2023-01-19T18:59:31.724Z,100.00
2023-01-19T19:01:59.450Z,100.00
2023-01-19T19:04:41.958Z,100.00
2023-01-19T19:07:14.543Z,100.00
2023-01-19T19:09:41.787Z,100.00
2023-01-19T19:12:12.375Z,100.00
2023-01-19T19:14:39.736Z,100.00
2023-01-19T19:17:06.995Z,100.00
2023-01-19T19:19:38.830Z,100.00
2023-01-19T19:22:10.232Z,100.00
2023-01-19T19:24:42.824Z,100.00
2023-01-19T19:27:10.306Z,100.00
2023-01-19T19:29:42.952Z,100.00
2023-01-19T19:32:14.978Z,100.00
2023-01-19T19:34:52.276Z,100.00
2023-01-19T19:37:20.222Z,100.00
2023-01-19T19:39:48.800Z,100.00
2023-01-19T19:42:16.074Z,100.00
2023-01-19T19:44:50.637Z,100.00
2023-01-19T19:47:17.852Z,100.00
2023-01-19T19:49:45.865Z,100.00
2023-01-19T19:52:16.186Z,100.00
2023-01-19T19:54:46.013Z,100.00
2023-01-19T19:57:24.192Z,100.00
2023-01-19T19:59:51.636Z,100.00
2023-01-19T20:02:27.742Z,100.00
2023-01-19T20:04:55.082Z,100.00
2023-01-19T20:07:24.568Z,100.00
2023-01-19T20:09:57.653Z,100.00
2023-01-19T20:12:39.301Z,100.00
2023-01-19T20:15:07.141Z,100.00
2023-01-19T20:17:36.309Z,100.00
2023-01-19T20:20:15.918Z,100.00
2023-01-19T20:22:43.188Z,100.00
2023-01-19T20:25:10.524Z,100.00
2023-01-19T20:27:37.715Z,100.00
2023-01-19T20:30:05.730Z,100.00
2023-01-19T20:32:33.857Z,100.00
2023-01-19T20:35:03.291Z,100.00
2023-01-19T20:37:31.549Z,100.00
2023-01-19T20:39:58.978Z,100.00
2023-01-19T20:42:45.751Z,100.00
2023-01-19T20:45:21.931Z,100.00
2023-01-19T20:47:49.163Z,100.00
2023-01-19T20:50:16.797Z,100.00
2023-01-19T20:52:44.351Z,100.00
2023-01-19T20:55:13.433Z,100.00
2023-01-19T20:57:43.139Z,100.00
2023-01-19T21:00:13.030Z,100.00
2023-01-19T21:02:40.318Z,100.00
2023-01-19T21:05:11.276Z,100.00
2023-01-19T21:07:39.824Z,100.00
2023-01-19T21:10:07.153Z,100.00
2023-01-19T21:12:44.790Z,100.00
2023-01-19T21:15:15.128Z,100.00
2023-01-19T21:17:47.232Z,100.00
2023-01-19T21:20:14.971Z,100.00
2023-01-19T21:22:48.029Z,100.00
2023-01-19T21:25:18.857Z,100.00
2023-01-19T21:27:49.885Z,100.00
2023-01-19T21:30:19.943Z,100.00
2023-01-19T21:32:47.302Z,100.00
2023-01-19T21:35:17.489Z,100.00
2023-01-19T21:37:44.706Z,100.00
2023-01-19T21:40:12.709Z,100.00
2023-01-19T21:42:42.649Z,100.00
2023-01-19T21:45:15.321Z,100.00
2023-01-19T21:47:43.643Z,100.00
2023-01-19T21:50:16.458Z,100.00
2023-01-19T21:52:43.722Z,100.00
2023-01-19T21:55:11.194Z,100.00
2023-01-19T21:57:38.745Z,100.00
2023-01-19T22:00:06.804Z,100.00
2023-01-19T22:02:38.959Z,100.00
2023-01-19T22:05:11.904Z,100.00
2023-01-19T22:10:30.763Z,100.00
2023-01-19T22:12:59.885Z,100.00
2023-01-19T22:15:32.398Z,100.00
2023-01-19T22:18:04.864Z,100.00
2023-01-19T22:20:33.807Z,100.00
2023-01-19T22:23:02.380Z,100.00
2023-01-19T22:25:33.375Z,100.00
2023-01-19T22:28:02.018Z,100.00
2023-01-19T22:30:30.759Z,100.00
2023-01-19T22:32:58.094Z,100.00
2023-01-19T22:35:25.324Z,100.00
2023-01-19T22:37:52.485Z,100.00
2023-01-19T22:40:19.858Z,100.00
2023-01-19T22:42:48.223Z,100.00
2023-01-19T22:45:16.084Z,100.00
2023-01-19T22:47:50.467Z,100.00
2023-01-19T22:50:17.866Z,100.00
2023-01-19T22:52:47.546Z,100.00
2023-01-19T22:55:17.722Z,100.00
2023-01-19T22:57:49.254Z,100.00
2023-01-19T23:00:18.684Z,100.00
2023-01-19T23:02:48.386Z,100.00
2023-01-19T23:05:17.418Z,100.00
2023-01-19T23:07:44.772Z,100.00
2023-01-19T23:10:11.998Z,100.00
2023-01-19T23:12:39.141Z,100.00
2023-01-19T23:15:09.039Z,100.00
2023-01-19T23:17:36.311Z,100.00
2023-01-19T23:20:04.778Z,100.00
2023-01-19T23:22:32.171Z,100.00
2023-01-19T23:24:59.423Z,100.00
2023-01-19T23:27:43.249Z,100.00
2023-01-19T23:30:11.083Z,100.00
2023-01-19T23:32:49.738Z,100.00
2023-01-19T23:35:17.017Z,100.00
2023-01-19T23:37:46.395Z,100.00
2023-01-19T23:40:16.716Z,100.00
2023-01-19T23:42:46.156Z,100.00
2023-01-19T23:45:15.722Z,100.00
2023-01-19T23:47:43.009Z,100.00
2023-01-19T23:50:15.465Z,100.00
2023-01-19T23:52:42.651Z,100.00
2023-01-19T23:55:09.885Z,100.00
2023-01-19T23:57:39.249Z,100.00
